Time;durP1;ratioP1;P1;durP2;ratioP2;P2;SDS_P1;SDS_P2;PMS_P1;PMS_P2;Temp;Humidity;BMP_temperature;BMP_pressure;BME280_temperature;BME280_humidity;BME280_pressure;Samples;Min_cycle;Max_cycle;Signal;HPM_P1;HPM_P2
2023/07/19 00:00:22;;;;;;;4.63;1.63;;;;;;;;;;5042678;27;89129;-56
2023/07/19 00:02:50;;;;;;;2.53;1.90;;;;;;;;;;5042699;27;88906;-56
2023/07/19 00:05:19;;;;;;;2.00;1.63;;;;;;;;;;5042775;27;87793;-57
2023/07/19 00:07:48;;;;;;;3.73;1.70;;;;;;;;;;5042482;27;87271;-57
2023/07/19 00:10:16;;;;;;;4.13;2.03;;;;;;;;;;5042462;27;89274;-56
2023/07/19 00:12:46;;;;;;;3.73;1.93;;;;;;;;;;5042210;27;87492;-55
2023/07/19 00:15:24;;;;;;;3.10;1.67;;;;;;;;;;5041305;27;87825;-54
2023/07/19 00:17:52;;;;;;;2.47;1.70;;;;;;;;;;5042445;27;88541;-54
2023/07/19 00:20:21;;;;;;;4.70;2.13;;;;;;;;;;5042275;27;87869;-56
2023/07/19 00:22:49;;;;;;;2.53;2.00;;;;;;;;;;5034970;27;88809;-55
2023/07/19 00:25:18;;;;;;;3.77;1.83;;;;;;;;;;5022152;28;87656;-55
2023/07/19 00:27:48;;;;;;;3.43;1.87;;;;;;;;;;5022045;28;89202;-55
2023/07/19 00:30:17;;;;;;;3.00;1.87;;;;;;;;;;5022149;28;89190;-55
2023/07/19 00:32:46;;;;;;;1.97;1.77;;;;;;;;;;5022891;28;87914;-55
2023/07/19 00:35:14;;;;;;;1.93;1.67;;;;;;;;;;5022385;28;87572;-55
2023/07/19 00:37:44;;;;;;;4.33;2.20;;;;;;;;;;5021789;28;88564;-55
2023/07/19 00:40:13;;;;;;;2.63;1.70;;;;;;;;;;5021249;28;88988;-55
2023/07/19 00:42:41;;;;;;;3.70;2.00;;;;;;;;;;5021447;28;90169;-56
2023/07/19 00:45:11;;;;;;;2.03;1.57;;;;;;;;;;5021531;28;87645;-55
2023/07/19 00:47:40;;;;;;;3.07;2.17;;;;;;;;;;5021929;28;88594;-55
2023/07/19 00:50:09;;;;;;;1.87;1.60;;;;;;;;;;5022379;28;88417;-55
2023/07/19 00:52:37;;;;;;;2.77;2.13;;;;;;;;;;5021706;28;88011;-54
2023/07/19 00:55:06;;;;;;;6.13;2.10;;;;;;;;;;5021914;28;87335;-55
2023/07/19 00:57:35;;;;;;;2.77;1.57;;;;;;;;;;5019952;28;88710;-55
2023/07/19 01:00:04;;;;;;;2.30;1.80;;;;;;;;;;5021550;28;88306;-54
2023/07/19 01:02:34;;;;;;;2.40;1.57;;;;;;;;;;5021582;28;87693;-54
2023/07/19 01:05:03;;;;;;;2.67;1.70;;;;;;;;;;5021608;28;87863;-56
2023/07/19 01:07:31;;;;;;;2.27;1.47;;;;;;;;;;5021441;28;88509;-54
2023/07/19 01:10:00;;;;;;;2.00;1.70;;;;;;;;;;5020913;28;88346;-55
2023/07/19 01:12:28;;;;;;;2.60;1.30;;;;;;;;;;5021482;28;87824;-55
2023/07/19 01:14:57;;;;;;;2.03;1.63;;;;;;;;;;5021735;28;87634;-56
2023/07/19 01:17:25;;;;;;;1.60;0.87;;;;;;;;;;5021251;28;89597;-56
2023/07/19 01:19:55;;;;;;;2.10;1.40;;;;;;;;;;5021449;28;87972;-55
2023/07/19 01:22:23;;;;;;;3.13;1.83;;;;;;;;;;5020946;28;88820;-56
2023/07/19 01:24:53;;;;;;;1.50;1.13;;;;;;;;;;5021218;28;87626;-56
2023/07/19 01:27:22;;;;;;;2.30;1.13;;;;;;;;;;5021063;28;88797;-56
2023/07/19 01:29:51;;;;;;;3.07;1.23;;;;;;;;;;5020502;28;88996;-56
2023/07/19 01:32:19;;;;;;;1.57;1.00;;;;;;;;;;5020978;28;88676;-56
2023/07/19 01:34:48;;;;;;;1.80;1.10;;;;;;;;;;5021217;28;87832;-56
2023/07/19 01:37:16;;;;;;;1.40;1.10;;;;;;;;;;5020787;28;88642;-56
2023/07/19 01:39:44;;;;;;;4.67;1.20;;;;;;;;;;5020847;28;88123;-56
2023/07/19 01:42:14;;;;;;;2.30;1.00;;;;;;;;;;5020603;28;87829;-56
2023/07/19 01:44:42;;;;;;;1.60;1.17;;;;;;;;;;5021126;28;87637;-55
2023/07/19 01:47:11;;;;;;;1.73;1.20;;;;;;;;;;5021163;28;89791;-55
2023/07/19 01:49:39;;;;;;;1.77;0.73;;;;;;;;;;5020432;28;87963;-55
2023/07/19 01:52:08;;;;;;;2.57;1.80;;;;;;;;;;5020783;28;89235;-58
2023/07/19 01:54:36;;;;;;;2.20;0.80;;;;;;;;;;5020558;28;88002;-54
2023/07/19 01:57:05;;;;;;;1.67;0.77;;;;;;;;;;5018858;28;89722;-56
2023/07/19 01:59:35;;;;;;;1.67;1.10;;;;;;;;;;5020728;28;88252;-54
2023/07/19 02:02:03;;;;;;;1.00;0.90;;;;;;;;;;5020618;28;87921;-56
2023/07/19 02:04:32;;;;;;;2.23;1.20;;;;;;;;;;5021027;28;87606;-55
2023/07/19 02:07:01;;;;;;;3.40;1.13;;;;;;;;;;5020192;28;89830;-56
2023/07/19 02:09:29;;;;;;;1.40;1.00;;;;;;;;;;5020466;28;88103;-56
2023/07/19 02:11:58;;;;;;;1.37;0.93;;;;;;;;;;5020819;28;87797;-56
2023/07/19 02:14:26;;;;;;;1.30;1.17;;;;;;;;;;5020822;28;87383;-55
2023/07/19 02:16:56;;;;;;;1.70;1.10;;;;;;;;;;5020263;28;88533;-55
2023/07/19 02:19:24;;;;;;;1.67;0.80;;;;;;;;;;5019879;28;87952;-54
2023/07/19 02:21:53;;;;;;;2.77;1.50;;;;;;;;;;5019827;28;88649;-55
2023/07/19 02:24:21;;;;;;;1.00;0.83;;;;;;;;;;5020498;28;87635;-56
2023/07/19 02:26:50;;;;;;;0.80;0.80;;;;;;;;;;5020164;28;88480;-56
2023/07/19 02:29:18;;;;;;;3.03;0.73;;;;;;;;;;5020228;28;89243;-55
2023/07/19 02:31:47;;;;;;;0.80;0.70;;;;;;;;;;5020286;28;88903;-55
2023/07/19 02:34:18;;;;;;;1.23;0.93;;;;;;;;;;5021230;27;88254;-55
2023/07/19 02:36:47;;;;;;;0.80;0.80;;;;;;;;;;5017024;28;88741;-54
2023/07/19 02:39:16;;;;;;;1.30;1.17;;;;;;;;;;5017607;28;88302;-56
2023/07/19 02:41:45;;;;;;;2.00;0.90;;;;;;;;;;5016749;28;87676;-55
2023/07/19 02:44:13;;;;;;;1.33;0.80;;;;;;;;;;5017006;28;87928;-55
2023/07/19 02:46:42;;;;;;;2.23;0.97;;;;;;;;;;5017036;28;88566;-57
2023/07/19 02:49:10;;;;;;;1.13;0.90;;;;;;;;;;5016938;28;88062;-56
2023/07/19 02:51:40;;;;;;;2.77;0.70;;;;;;;;;;5016895;28;88189;-56
2023/07/19 02:54:09;;;;;;;1.63;1.00;;;;;;;;;;5023367;28;87679;-56
2023/07/19 02:56:37;;;;;;;1.63;0.73;;;;;;;;;;5036093;28;88636;-56
2023/07/19 02:59:06;;;;;;;3.17;1.00;;;;;;;;;;5036460;28;88816;-56
2023/07/19 03:01:36;;;;;;;1.70;0.60;;;;;;;;;;5036827;28;90321;-54
2023/07/19 03:04:06;;;;;;;3.50;0.70;;;;;;;;;;5037031;28;87816;-56
2023/07/19 03:06:34;;;;;;;1.40;0.57;;;;;;;;;;5036945;27;89595;-56
2023/07/19 03:09:06;;;;;;;0.80;0.77;;;;;;;;;;5040042;28;89147;-55
2023/07/19 03:11:35;;;;;;;1.73;0.80;;;;;;;;;;5040401;28;88681;-55
2023/07/19 03:14:03;;;;;;;2.63;0.60;;;;;;;;;;5040618;28;87973;-56
2023/07/19 03:16:32;;;;;;;1.13;0.67;;;;;;;;;;5040028;28;88913;-56
2023/07/19 03:19:00;;;;;;;0.93;0.70;;;;;;;;;;5040063;27;88525;-55
2023/07/19 03:21:28;;;;;;;1.10;0.60;;;;;;;;;;5040382;27;87843;-56
2023/07/19 03:23:57;;;;;;;1.33;0.77;;;;;;;;;;5040340;27;88717;-56
2023/07/19 03:26:27;;;;;;;3.07;0.67;;;;;;;;;;5040583;27;88739;-55
2023/07/19 03:28:55;;;;;;;0.50;0.50;;;;;;;;;;5040352;27;87945;-56
2023/07/19 03:31:24;;;;;;;2.73;1.03;;;;;;;;;;5040226;28;88019;-56
2023/07/19 03:33:53;;;;;;;0.93;0.67;;;;;;;;;;5039580;27;88038;-56
2023/07/19 03:36:21;;;;;;;1.10;0.53;;;;;;;;;;5040076;27;88681;-56
2023/07/19 03:38:49;;;;;;;0.97;0.67;;;;;;;;;;5040376;27;89160;-56
2023/07/19 03:41:18;;;;;;;0.50;0.50;;;;;;;;;;5039891;27;87513;-56
2023/07/19 03:43:48;;;;;;;1.00;0.60;;;;;;;;;;5040007;27;87679;-55
2023/07/19 03:46:19;;;;;;;1.37;0.70;;;;;;;;;;5039506;27;88645;-55
2023/07/19 03:48:48;;;;;;;4.20;0.77;;;;;;;;;;5039690;27;88356;-55
2023/07/19 03:51:16;;;;;;;1.13;0.50;;;;;;;;;;5039644;27;87938;-57
2023/07/19 03:53:47;;;;;;;2.00;0.80;;;;;;;;;;5039995;28;87893;-55
2023/07/19 03:56:15;;;;;;;0.90;0.60;;;;;;;;;;5039999;28;89500;-55
2023/07/19 03:58:48;;;;;;;0.80;0.60;;;;;;;;;;5038623;28;90187;-56
2023/07/19 04:01:18;;;;;;;0.90;0.50;;;;;;;;;;5039889;27;88850;-55
2023/07/19 04:03:47;;;;;;;0.70;0.70;;;;;;;;;;5039662;27;87616;-56
2023/07/19 04:06:18;;;;;;;0.80;0.60;;;;;;;;;;5039702;28;89528;-55
2023/07/19 04:08:46;;;;;;;1.43;0.57;;;;;;;;;;5037702;27;88131;-55
2023/07/19 04:11:14;;;;;;;1.20;0.80;;;;;;;;;;5039011;27;88049;-56
2023/07/19 04:13:43;;;;;;;1.70;1.00;;;;;;;;;;5042873;27;87289;-56
2023/07/19 04:16:11;;;;;;;0.50;0.50;;;;;;;;;;5042742;27;89748;-56
2023/07/19 04:18:41;;;;;;;0.77;0.77;;;;;;;;;;5041212;27;89216;-56
2023/07/19 04:21:10;;;;;;;2.10;0.97;;;;;;;;;;5042420;27;87900;-55
2023/07/19 04:23:38;;;;;;;2.67;0.90;;;;;;;;;;5042139;27;87847;-55
2023/07/19 04:26:06;;;;;;;1.13;0.50;;;;;;;;;;5042456;27;89640;-55
2023/07/19 04:28:35;;;;;;;0.70;0.63;;;;;;;;;;5042184;27;89106;-56
2023/07/19 04:31:03;;;;;;;1.97;0.80;;;;;;;;;;5042282;27;87728;-56
2023/07/19 04:33:32;;;;;;;2.10;0.60;;;;;;;;;;5042245;27;87344;-56
2023/07/19 04:36:02;;;;;;;0.40;0.40;;;;;;;;;;5042144;27;89634;-56
2023/07/19 04:38:30;;;;;;;0.80;0.60;;;;;;;;;;5041866;27;89102;-56
2023/07/19 04:41:03;;;;;;;0.50;0.50;;;;;;;;;;5042311;27;87899;-56
2023/07/19 04:43:31;;;;;;;2.43;0.73;;;;;;;;;;5041956;27;87523;-56
2023/07/19 04:45:59;;;;;;;0.67;0.40;;;;;;;;;;5041711;27;87406;-56
2023/07/19 04:48:28;;;;;;;1.43;0.70;;;;;;;;;;5041485;27;89026;-55
2023/07/19 04:50:56;;;;;;;1.20;0.63;;;;;;;;;;5041636;27;88709;-55
2023/07/19 04:53:26;;;;;;;0.80;0.70;;;;;;;;;;5042185;27;87626;-56
2023/07/19 04:55:54;;;;;;;0.97;0.57;;;;;;;;;;5041963;27;89629;-56
2023/07/19 04:58:23;;;;;;;1.27;0.73;;;;;;;;;;5041202;27;88159;-55
2023/07/19 05:00:51;;;;;;;1.33;0.60;;;;;;;;;;5041444;27;89017;-56
2023/07/19 05:03:21;;;;;;;0.70;0.60;;;;;;;;;;5041949;27;87651;-55
2023/07/19 05:05:50;;;;;;;0.43;0.43;;;;;;;;;;5041841;27;87359;-56
2023/07/19 05:08:18;;;;;;;1.83;0.90;;;;;;;;;;5041542;27;88256;-56
2023/07/19 05:10:48;;;;;;;1.50;0.87;;;;;;;;;;5041725;27;87962;-56
2023/07/19 05:13:16;;;;;;;0.50;0.40;;;;;;;;;;5041563;27;87943;-56
2023/07/19 05:15:44;;;;;;;1.10;0.60;;;;;;;;;;5041236;27;88622;-55
2023/07/19 05:18:13;;;;;;;1.30;0.70;;;;;;;;;;5041560;27;89186;-56
2023/07/19 05:20:41;;;;;;;2.63;0.80;;;;;;;;;;5041565;27;87745;-55
2023/07/19 05:23:10;;;;;;;2.10;0.50;;;;;;;;;;5041825;27;87618;-55
2023/07/19 05:25:38;;;;;;;0.57;0.47;;;;;;;;;;5041440;27;89122;-55
2023/07/19 05:28:08;;;;;;;1.03;0.60;;;;;;;;;;5041425;27;88237;-55
2023/07/19 05:30:36;;;;;;;1.50;0.80;;;;;;;;;;5041115;27;87654;-56
2023/07/19 05:33:05;;;;;;;1.10;0.63;;;;;;;;;;5041414;27;87708;-56
2023/07/19 05:35:33;;;;;;;0.73;0.50;;;;;;;;;;5041193;27;87336;-55
2023/07/19 05:38:03;;;;;;;0.70;0.60;;;;;;;;;;5040841;27;89037;-55
2023/07/19 05:40:32;;;;;;;1.03;0.87;;;;;;;;;;5041168;27;89987;-54
2023/07/19 05:43:00;;;;;;;1.50;0.70;;;;;;;;;;5040748;27;87328;-54
2023/07/19 05:45:31;;;;;;;0.67;0.50;;;;;;;;;;5040736;27;88751;-55
2023/07/19 05:47:59;;;;;;;2.63;0.93;;;;;;;;;;5041321;27;87967;-54
2023/07/19 05:50:28;;;;;;;0.87;0.50;;;;;;;;;;5041046;27;88053;-55
2023/07/19 05:52:56;;;;;;;0.73;0.67;;;;;;;;;;5041245;27;87634;-55
2023/07/19 05:55:25;;;;;;;1.27;0.60;;;;;;;;;;5041217;27;88720;-56
2023/07/19 05:57:53;;;;;;;1.13;0.60;;;;;;;;;;5040314;27;87893;-56
2023/07/19 06:00:24;;;;;;;1.87;0.70;;;;;;;;;;5040729;27;88895;-56
2023/07/19 06:02:54;;;;;;;0.63;0.57;;;;;;;;;;5040653;27;88816;-56
2023/07/19 06:05:24;;;;;;;3.03;0.70;;;;;;;;;;5041071;27;88700;-55
2023/07/19 06:07:53;;;;;;;0.80;0.50;;;;;;;;;;5040607;27;88230;-56
2023/07/19 06:10:22;;;;;;;1.63;0.63;;;;;;;;;;5040632;27;87981;-55
2023/07/19 06:12:50;;;;;;;0.60;0.60;;;;;;;;;;5040923;27;87654;-56
2023/07/19 06:15:19;;;;;;;1.23;0.80;;;;;;;;;;5040520;27;88773;-56
2023/07/19 06:17:48;;;;;;;3.47;0.80;;;;;;;;;;5040267;27;88959;-56
2023/07/19 06:20:18;;;;;;;2.40;0.70;;;;;;;;;;5040728;27;88002;-56
2023/07/19 06:22:46;;;;;;;0.73;0.73;;;;;;;;;;5040752;27;87427;-55
2023/07/19 06:25:16;;;;;;;1.53;0.63;;;;;;;;;;5040465;27;88488;-55
2023/07/19 06:27:44;;;;;;;0.90;0.50;;;;;;;;;;5039817;27;89045;-54
2023/07/19 06:30:13;;;;;;;0.67;0.57;;;;;;;;;;5040337;27;87652;-55
2023/07/19 06:32:41;;;;;;;0.77;0.60;;;;;;;;;;5040738;27;87650;-56
2023/07/19 06:35:10;;;;;;;0.70;0.70;;;;;;;;;;5040292;27;88539;-55
2023/07/19 06:37:40;;;;;;;0.90;0.53;;;;;;;;;;5040341;28;87830;-56
2023/07/19 06:40:09;;;;;;;0.67;0.50;;;;;;;;;;5040233;27;88567;-55
2023/07/19 06:42:38;;;;;;;3.90;0.50;;;;;;;;;;5041424;27;87592;-55
2023/07/19 06:45:07;;;;;;;0.63;0.40;;;;;;;;;;5044179;27;89510;-56
2023/07/19 06:47:35;;;;;;;0.50;0.50;;;;;;;;;;5043668;27;88080;-56
2023/07/19 06:50:03;;;;;;;0.60;0.60;;;;;;;;;;5043681;27;87719;-56
2023/07/19 06:52:32;;;;;;;1.50;0.70;;;;;;;;;;5043638;27;87951;-56
2023/07/19 06:55:02;;;;;;;0.87;0.57;;;;;;;;;;5043814;27;88576;-54
2023/07/19 06:57:30;;;;;;;0.70;0.70;;;;;;;;;;5042820;27;88276;-56
2023/07/19 06:59:59;;;;;;;0.57;0.53;;;;;;;;;;5043616;27;87916;-56
2023/07/19 07:02:27;;;;;;;0.90;0.90;;;;;;;;;;5043990;27;87607;-55
2023/07/19 07:04:56;;;;;;;1.67;1.07;;;;;;;;;;5043761;27;88403;-56
2023/07/19 07:07:24;;;;;;;0.60;0.60;;;;;;;;;;5043590;27;88099;-56
2023/07/19 07:09:53;;;;;;;1.30;0.53;;;;;;;;;;5043578;27;87400;-55
2023/07/19 07:12:23;;;;;;;0.90;0.40;;;;;;;;;;5043329;27;89144;-55
2023/07/19 07:14:51;;;;;;;0.60;0.53;;;;;;;;;;5043501;27;89735;-56
2023/07/19 07:17:19;;;;;;;0.90;0.60;;;;;;;;;;5042788;27;89129;-55
2023/07/19 07:19:48;;;;;;;0.40;0.40;;;;;;;;;;5043197;27;88688;-55
2023/07/19 07:22:18;;;;;;;1.47;0.80;;;;;;;;;;5043716;27;87612;-55
2023/07/19 07:24:47;;;;;;;3.93;0.80;;;;;;;;;;5043223;27;88573;-56
2023/07/19 07:27:15;;;;;;;1.07;0.63;;;;;;;;;;5042880;27;88254;-56
2023/07/19 07:29:45;;;;;;;0.60;0.50;;;;;;;;;;5043256;27;88844;-55
2023/07/19 07:32:13;;;;;;;0.73;0.60;;;;;;;;;;5043372;27;87723;-55
2023/07/19 07:34:41;;;;;;;1.17;0.60;;;;;;;;;;5043314;27;88745;-55
2023/07/19 07:37:10;;;;;;;1.57;0.70;;;;;;;;;;5043199;27;88227;-54
2023/07/19 07:39:38;;;;;;;0.40;0.40;;;;;;;;;;5042914;27;88870;-56
2023/07/19 07:42:08;;;;;;;0.97;0.50;;;;;;;;;;5041936;27;87916;-55
2023/07/19 07:44:36;;;;;;;2.67;0.63;;;;;;;;;;5043095;27;89833;-55
2023/07/19 07:47:07;;;;;;;0.77;0.53;;;;;;;;;;5042925;27;88012;-56
2023/07/19 07:49:36;;;;;;;1.03;0.40;;;;;;;;;;5042911;27;88863;-56
2023/07/19 07:52:04;;;;;;;1.93;0.97;;;;;;;;;;5042965;27;87592;-56
2023/07/19 07:54:33;;;;;;;3.47;0.80;;;;;;;;;;5041476;27;88723;-55
2023/07/19 07:57:01;;;;;;;1.03;0.73;;;;;;;;;;5042661;27;89353;-55
2023/07/19 07:59:30;;;;;;;1.27;0.80;;;;;;;;;;5042906;27;87935;-56
2023/07/19 08:01:59;;;;;;;1.77;0.93;;;;;;;;;;5043013;27;87623;-56
2023/07/19 08:04:31;;;;;;;1.17;0.50;;;;;;;;;;5042531;27;88446;-55
2023/07/19 08:07:00;;;;;;;0.67;0.60;;;;;;;;;;5042267;27;90280;-55
2023/07/19 08:09:28;;;;;;;1.87;0.73;;;;;;;;;;5042344;27;88682;-56
2023/07/19 08:11:57;;;;;;;0.57;0.57;;;;;;;;;;5042876;27;87652;-56
2023/07/19 08:14:26;;;;;;;2.33;1.00;;;;;;;;;;5042414;27;88812;-56
2023/07/19 08:16:54;;;;;;;0.93;0.70;;;;;;;;;;5042454;27;87453;-56
2023/07/19 08:19:23;;;;;;;1.77;0.70;;;;;;;;;;5042347;27;87647;-55
2023/07/19 08:21:52;;;;;;;1.10;0.97;;;;;;;;;;5042601;27;87627;-55
2023/07/19 08:24:21;;;;;;;1.70;0.90;;;;;;;;;;5042274;27;88687;-55
2023/07/19 08:26:49;;;;;;;1.00;0.97;;;;;;;;;;5042354;27;87325;-55
2023/07/19 08:29:18;;;;;;;1.33;1.00;;;;;;;;;;5042338;27;88194;-56
2023/07/19 08:31:46;;;;;;;1.33;0.90;;;;;;;;;;5041646;27;87876;-55
2023/07/19 08:34:14;;;;;;;1.90;1.00;;;;;;;;;;5042054;27;87439;-56
2023/07/19 08:36:43;;;;;;;1.80;0.70;;;;;;;;;;5042133;27;87420;-56
2023/07/19 08:39:12;;;;;;;2.73;1.13;;;;;;;;;;5041985;27;87505;-56
2023/07/19 08:41:41;;;;;;;1.30;1.07;;;;;;;;;;5041883;27;88032;-55
2023/07/19 08:44:10;;;;;;;2.00;1.00;;;;;;;;;;5041885;27;87451;-56
2023/07/19 08:46:38;;;;;;;2.17;0.77;;;;;;;;;;5042148;27;89062;-56
2023/07/19 08:49:07;;;;;;;1.67;1.20;;;;;;;;;;5042035;27;87302;-56
2023/07/19 08:51:35;;;;;;;0.90;0.70;;;;;;;;;;5042132;27;87650;-55
2023/07/19 08:54:03;;;;;;;0.90;0.90;;;;;;;;;;5041717;27;88722;-55
2023/07/19 08:56:33;;;;;;;1.90;1.17;;;;;;;;;;5041475;27;90198;-56
2023/07/19 08:59:02;;;;;;;1.60;0.80;;;;;;;;;;5041791;27;88507;-56
2023/07/19 09:01:31;;;;;;;1.10;0.80;;;;;;;;;;5041943;27;87602;-56
2023/07/19 09:03:59;;;;;;;1.27;1.00;;;;;;;;;;5041847;27;88544;-55
2023/07/19 09:06:30;;;;;;;2.10;0.60;;;;;;;;;;5041554;27;88977;-55
2023/07/19 09:08:59;;;;;;;1.63;0.70;;;;;;;;;;5041446;27;88811;-56
2023/07/19 09:11:27;;;;;;;6.37;1.10;;;;;;;;;;5041722;27;87665;-56
2023/07/19 09:13:57;;;;;;;2.50;0.73;;;;;;;;;;5041781;27;88612;-56
2023/07/19 09:16:29;;;;;;;1.57;0.80;;;;;;;;;;5041853;27;89818;-56
2023/07/19 09:18:58;;;;;;;1.30;0.80;;;;;;;;;;5041575;27;88009;-55
2023/07/19 09:21:33;;;;;;;0.80;0.80;;;;;;;;;;5041249;27;87905;-54
2023/07/19 09:24:04;;;;;;;1.10;0.63;;;;;;;;;;5041615;28;90034;-54
2023/07/19 09:26:44;;;;;;;1.47;0.87;;;;;;;;;;5041704;27;88123;-56
2023/07/19 09:29:14;;;;;;;4.00;0.90;;;;;;;;;;5041580;27;88922;-55
2023/07/19 09:31:53;;;;;;;1.40;0.60;;;;;;;;;;5041670;27;87683;-56
2023/07/19 09:34:22;;;;;;;1.80;1.27;;;;;;;;;;5041109;27;87405;-55
2023/07/19 09:36:52;;;;;;;0.70;0.60;;;;;;;;;;5040999;27;89086;-55
2023/07/19 09:39:20;;;;;;;1.43;0.90;;;;;;;;;;5041478;27;87840;-56
2023/07/19 09:41:49;;;;;;;1.23;0.60;;;;;;;;;;5040906;27;87670;-55
2023/07/19 09:44:19;;;;;;;1.03;0.60;;;;;;;;;;5041303;27;88713;-54
2023/07/19 09:46:47;;;;;;;1.60;0.80;;;;;;;;;;5040475;27;89107;-55
2023/07/19 09:49:15;;;;;;;3.27;0.90;;;;;;;;;;5041355;27;88864;-56
2023/07/19 09:51:44;;;;;;;2.30;0.80;;;;;;;;;;5041250;27;87714;-56
2023/07/19 09:54:12;;;;;;;1.53;0.70;;;;;;;;;;5040971;27;88595;-55
2023/07/19 09:56:41;;;;;;;3.97;0.60;;;;;;;;;;5040888;27;88631;-56
2023/07/19 09:59:10;;;;;;;2.20;0.90;;;;;;;;;;5040653;27;87926;-55
2023/07/19 10:01:40;;;;;;;0.87;0.80;;;;;;;;;;5041235;27;87748;-56
2023/07/19 10:04:24;;;;;;;0.77;0.60;;;;;;;;;;5041224;27;88791;-56
2023/07/19 10:07:00;;;;;;;1.43;0.90;;;;;;;;;;5040761;27;87226;-55
2023/07/19 10:09:32;;;;;;;1.90;1.20;;;;;;;;;;5041228;27;87925;-55
2023/07/19 10:12:01;;;;;;;0.60;0.60;;;;;;;;;;5040746;27;87848;-56
2023/07/19 10:14:29;;;;;;;2.17;1.00;;;;;;;;;;5040730;27;88583;-55
2023/07/19 10:17:04;;;;;;;3.10;1.03;;;;;;;;;;5039930;27;88279;-56
2023/07/19 10:19:35;;;;;;;2.23;1.00;;;;;;;;;;5040425;27;87852;-56
2023/07/19 10:22:04;;;;;;;1.77;0.77;;;;;;;;;;5040771;27;87621;-55
2023/07/19 10:24:33;;;;;;;2.07;1.20;;;;;;;;;;5040506;27;87476;-56
2023/07/19 10:27:02;;;;;;;1.27;1.10;;;;;;;;;;5040723;27;88076;-55
2023/07/19 10:29:40;;;;;;;1.63;1.23;;;;;;;;;;5040803;27;87701;-55
2023/07/19 10:32:10;;;;;;;1.03;0.90;;;;;;;;;;5040841;27;87614;-56
2023/07/19 10:34:38;;;;;;;1.77;0.80;;;;;;;;;;5039964;27;87421;-56
2023/07/19 10:37:13;;;;;;;2.23;1.03;;;;;;;;;;5040061;27;88987;-55
2023/07/19 10:39:41;;;;;;;1.60;0.70;;;;;;;;;;5040544;27;88648;-56
2023/07/19 10:42:10;;;;;;;1.40;0.70;;;;;;;;;;5040354;27;87749;-56
2023/07/19 10:44:38;;;;;;;1.30;1.03;;;;;;;;;;5040403;27;88547;-56
2023/07/19 10:47:07;;;;;;;2.40;1.13;;;;;;;;;;5040255;27;89139;-56
2023/07/19 10:49:36;;;;;;;1.47;0.73;;;;;;;;;;5040024;27;87377;-55
2023/07/19 10:52:05;;;;;;;1.97;0.97;;;;;;;;;;5040506;27;87603;-55
2023/07/19 10:54:34;;;;;;;2.07;1.10;;;;;;;;;;5040308;27;88539;-56
2023/07/19 10:57:22;;;;;;;2.27;0.80;;;;;;;;;;5040012;27;89110;-56
2023/07/19 10:59:51;;;;;;;0.80;0.77;;;;;;;;;;5040032;27;87573;-55
2023/07/19 11:02:19;;;;;;;2.63;0.90;;;;;;;;;;5039767;27;87866;-55
2023/07/19 11:04:49;;;;;;;0.97;0.77;;;;;;;;;;5039871;27;87385;-56
2023/07/19 11:07:18;;;;;;;0.90;0.60;;;;;;;;;;5040069;27;88390;-55
2023/07/19 11:09:50;;;;;;;1.40;0.70;;;;;;;;;;5040100;27;87932;-56
2023/07/19 11:12:18;;;;;;;1.17;0.93;;;;;;;;;;5040223;27;87612;-56
2023/07/19 11:14:56;;;;;;;0.60;0.60;;;;;;;;;;5039805;27;89715;-56
2023/07/19 11:17:25;;;;;;;1.40;0.60;;;;;;;;;;5040093;27;88036;-55
2023/07/19 11:19:55;;;;;;;2.43;0.77;;;;;;;;;;5040050;27;87853;-55
2023/07/19 11:22:24;;;;;;;0.90;0.60;;;;;;;;;;5039504;27;88413;-56
2023/07/19 11:24:53;;;;;;;0.47;0.40;;;;;;;;;;5039766;27;88631;-56
2023/07/19 11:27:24;;;;;;;0.80;0.37;;;;;;;;;;5039183;27;89144;-56
2023/07/19 11:29:52;;;;;;;0.60;0.60;;;;;;;;;;5042624;27;88647;-56
2023/07/19 11:32:21;;;;;;;0.60;0.60;;;;;;;;;;5043034;27;87190;-55
2023/07/19 11:34:51;;;;;;;0.40;0.40;;;;;;;;;;5043096;28;88631;-55
2023/07/19 11:37:27;;;;;;;0.87;0.87;;;;;;;;;;5043220;28;89115;-56
2023/07/19 11:39:59;;;;;;;3.67;0.83;;;;;;;;;;5043302;27;89038;-55
2023/07/19 11:42:43;;;;;;;0.97;0.60;;;;;;;;;;5042896;27;87920;-56
2023/07/19 11:45:12;;;;;;;0.87;0.67;;;;;;;;;;5043109;28;88636;-56
2023/07/19 11:47:41;;;;;;;4.10;0.90;;;;;;;;;;5042765;28;89257;-56
2023/07/19 11:50:10;;;;;;;1.60;0.70;;;;;;;;;;5043200;27;88794;-55
2023/07/19 11:52:51;;;;;;;1.57;1.10;;;;;;;;;;5042723;27;87743;-54
2023/07/19 11:55:20;;;;;;;2.77;1.00;;;;;;;;;;5042739;27;88615;-56
2023/07/19 11:57:49;;;;;;;1.30;0.97;;;;;;;;;;5042443;28;88145;-55
2023/07/19 12:00:18;;;;;;;2.40;1.33;;;;;;;;;;5042780;27;87781;-56
2023/07/19 12:02:46;;;;;;;2.33;1.80;;;;;;;;;;5042666;27;87628;-56
2023/07/19 12:05:16;;;;;;;11.10;5.73;;;;;;;;;;5042731;28;89603;-56
2023/07/19 12:07:45;;;;;;;10.80;3.60;;;;;;;;;;5042706;28;88898;-56
2023/07/19 12:10:14;;;;;;;16.43;8.77;;;;;;;;;;5042899;27;88151;-56
2023/07/19 12:12:44;;;;;;;17.37;8.40;;;;;;;;;;5042753;27;87718;-56
2023/07/19 12:15:13;;;;;;;18.13;8.07;;;;;;;;;;5042423;28;88518;-56
2023/07/19 12:17:41;;;;;;;12.23;5.47;;;;;;;;;;5041740;27;88852;-56
2023/07/19 12:20:10;;;;;;;8.27;4.90;;;;;;;;;;5042463;27;88700;-55
2023/07/19 12:22:39;;;;;;;8.43;4.67;;;;;;;;;;5042547;28;87612;-56
2023/07/19 12:25:08;;;;;;;9.10;5.13;;;;;;;;;;5042162;28;89691;-56
2023/07/19 12:27:38;;;;;;;6.10;3.43;;;;;;;;;;5042187;28;88102;-56
2023/07/19 12:30:09;;;;;;;5.30;3.23;;;;;;;;;;5033200;27;87333;-55
2023/07/19 12:32:38;;;;;;;4.23;3.07;;;;;;;;;;5019443;28;87538;-55
2023/07/19 12:35:07;;;;;;;4.50;2.80;;;;;;;;;;5019129;28;87659;-60
2023/07/19 12:37:35;;;;;;;6.07;3.00;;;;;;;;;;5018649;28;89151;-56
2023/07/19 12:40:05;;;;;;;3.07;2.53;;;;;;;;;;5018355;28;88246;-55
2023/07/19 12:42:33;;;;;;;5.10;2.30;;;;;;;;;;5018378;28;87973;-55
2023/07/19 12:45:03;;;;;;;2.23;1.83;;;;;;;;;;5018756;28;88732;-55
2023/07/19 12:47:31;;;;;;;4.20;2.00;;;;;;;;;;5018949;28;88407;-55
2023/07/19 12:50:02;;;;;;;5.97;2.80;;;;;;;;;;5018669;28;87850;-56
2023/07/19 12:52:30;;;;;;;3.07;1.90;;;;;;;;;;5019251;28;87640;-55
2023/07/19 12:55:17;;;;;;;4.63;2.70;;;;;;;;;;5018574;28;88725;-56
2023/07/19 12:57:47;;;;;;;6.40;2.53;;;;;;;;;;5019094;28;88899;-55
2023/07/19 13:00:18;;;;;;;2.90;2.00;;;;;;;;;;5019287;28;87989;-57
2023/07/19 13:02:46;;;;;;;3.47;1.83;;;;;;;;;;5019250;28;87665;-56
2023/07/19 13:05:15;;;;;;;3.90;2.20;;;;;;;;;;5018337;28;88572;-55
2023/07/19 13:07:44;;;;;;;3.03;1.70;;;;;;;;;;5018474;28;88824;-56
2023/07/19 13:10:13;;;;;;;4.10;2.27;;;;;;;;;;5018442;28;88398;-55
2023/07/19 13:12:42;;;;;;;3.80;2.17;;;;;;;;;;5018945;28;87597;-56
2023/07/19 13:15:10;;;;;;;5.63;2.33;;;;;;;;;;5018088;28;89743;-56
2023/07/19 13:17:42;;;;;;;2.93;2.10;;;;;;;;;;5018204;28;88145;-56
2023/07/19 13:20:11;;;;;;;2.73;1.80;;;;;;;;;;5018444;28;88927;-56
2023/07/19 13:22:39;;;;;;;2.93;2.07;;;;;;;;;;5018571;28;87680;-55
2023/07/19 13:25:08;;;;;;;2.47;1.57;;;;;;;;;;5018369;28;88741;-57
2023/07/19 13:27:36;;;;;;;3.17;1.83;;;;;;;;;;5018288;28;87637;-56
2023/07/19 13:30:06;;;;;;;1.97;1.30;;;;;;;;;;5018112;28;88940;-56
2023/07/19 13:32:35;;;;;;;3.77;2.30;;;;;;;;;;5017696;28;88020;-56
2023/07/19 13:35:06;;;;;;;4.37;2.20;;;;;;;;;;5017885;28;88511;-56
2023/07/19 13:37:41;;;;;;;4.27;1.60;;;;;;;;;;5018009;28;87986;-56
2023/07/19 13:40:13;;;;;;;5.67;2.20;;;;;;;;;;5018242;28;87749;-55
2023/07/19 13:42:42;;;;;;;2.57;1.50;;;;;;;;;;5017862;28;88032;-55
2023/07/19 13:45:11;;;;;;;4.17;2.67;;;;;;;;;;5017615;28;90019;-56
2023/07/19 13:47:39;;;;;;;4.30;2.00;;;;;;;;;;5017689;28;88056;-56
2023/07/19 13:50:11;;;;;;;3.87;2.30;;;;;;;;;;5018232;28;87930;-55
2023/07/19 13:52:40;;;;;;;2.80;1.70;;;;;;;;;;5016747;28;87490;-56
2023/07/19 13:55:09;;;;;;;3.97;1.83;;;;;;;;;;5017782;28;88505;-56
2023/07/19 13:57:37;;;;;;;4.37;2.17;;;;;;;;;;5016687;28;90016;-56
2023/07/19 14:00:06;;;;;;;3.23;1.83;;;;;;;;;;5017788;28;88853;-56
2023/07/19 14:02:37;;;;;;;2.83;1.50;;;;;;;;;;5018269;28;88034;-56
2023/07/19 14:05:06;;;;;;;5.10;1.60;;;;;;;;;;5017468;28;89773;-56
2023/07/19 14:07:36;;;;;;;2.33;1.73;;;;;;;;;;5017789;28;88068;-56
2023/07/19 14:10:05;;;;;;;2.57;1.50;;;;;;;;;;5017637;28;88918;-56
2023/07/19 14:12:33;;;;;;;3.83;1.30;;;;;;;;;;5017652;28;87703;-56
2023/07/19 14:15:03;;;;;;;5.33;2.47;;;;;;;;;;5018057;28;89626;-56
2023/07/19 14:17:32;;;;;;;2.73;2.00;;;;;;;;;;5016730;28;88071;-56
2023/07/19 14:20:00;;;;;;;5.33;2.20;;;;;;;;;;5017539;28;87992;-55
2023/07/19 14:22:29;;;;;;;2.73;1.60;;;;;;;;;;5017277;28;87861;-56
2023/07/19 14:24:58;;;;;;;2.80;1.87;;;;;;;;;;5017421;28;87502;-56
2023/07/19 14:27:27;;;;;;;2.27;1.77;;;;;;;;;;5017116;28;88403;-56
2023/07/19 14:29:55;;;;;;;2.37;1.87;;;;;;;;;;5017305;28;88986;-56
2023/07/19 14:32:23;;;;;;;7.30;2.33;;;;;;;;;;5017987;28;87935;-56
2023/07/19 14:34:52;;;;;;;2.53;2.07;;;;;;;;;;5017334;28;88535;-56
2023/07/19 14:37:21;;;;;;;2.83;1.90;;;;;;;;;;5017140;28;87951;-56
2023/07/19 14:39:49;;;;;;;3.87;1.93;;;;;;;;;;5017406;28;87885;-55
2023/07/19 14:42:19;;;;;;;5.97;2.27;;;;;;;;;;5016652;28;88293;-55
2023/07/19 14:44:47;;;;;;;2.53;2.10;;;;;;;;;;5017115;28;89968;-56
2023/07/19 14:47:15;;;;;;;4.30;2.00;;;;;;;;;;5016865;28;89102;-56
2023/07/19 14:49:44;;;;;;;2.00;1.77;;;;;;;;;;5016827;28;89872;-56
2023/07/19 14:52:13;;;;;;;2.73;1.90;;;;;;;;;;5017726;28;88148;-56
2023/07/19 14:54:42;;;;;;;3.30;1.80;;;;;;;;;;5017621;28;88432;-56